Latest Weather Observations for Rolleston Airport

IDQ60801

Issued at 3:02 pm EST Friday 28 August 2015 (issued every 30 minutes, with the page automatically refreshed every 10 minutes)

About weather observations | Map of weather stations | Latest weather observations for QLD | Other Formats
Station Details ID: 035129 Name: ROLLESTON AIRPORT Lat: -24.46 Lon: 148.63 Height: 219.45 m
Data from the previous 72 hours. | See also: Recent months at Rolleston Airport
Date/Time
EST
Temp
°C
App
Temp
°C
Dew
Point
Rel
Hum
%
Delta-T
°C
Wind Press
QNH
hPa
Press
MSL
hPa
Rain
since 9 am
mm
Dir
 
Spd
km/h
Gust
km/h
Spd
kts
Gust
kts
28/03:00pm 25.1 24.1 12.3 45 7.4 SW 9 15 5 8 1018.4 1018.1 0.0
28/02:30pm 25.4 25.1 13.3 47 7.1 S 7 15 4 8 1018.4 1018.1 0.0
28/02:00pm 24.7 24.3 13.0 48 6.8 SE 7 15 4 8 1018.5 1018.2 0.0
28/01:30pm 24.0 23.5 12.6 49 6.6 S 7 19 4 10 1019.3 1019.0 0.0
28/01:00pm 23.7 23.6 13.3 52 6.1 SSW 6 11 3 6 1020.2 1019.9 0.0
28/12:30pm 22.8 22.0 13.0 54 5.7 SSE 9 15 5 8 1020.8 1020.5 0.0
28/12:00pm 21.9 21.1 13.0 57 5.1 S 9 15 5 8 1021.5 1021.2 0.0
28/11:30am 21.6 20.0 12.7 57 5.1 S 13 20 7 11 1022.1 1021.8 0.0
28/11:00am 21.3 19.8 13.0 59 4.8 S 13 24 7 13 1022.5 1022.2 0.0
28/10:30am 20.8 19.3 13.0 61 4.5 SSE 13 22 7 12 1023.0 1022.7 0.0
28/10:00am 19.4 17.7 12.4 64 3.9 SSE 13 20 7 11 1023.3 1023.0 0.0
28/09:30am 18.8 16.7 12.3 66 3.7 S 15 22 8 12 1023.5 1023.2 0.0
28/09:00am 18.2 15.8 12.6 70 3.1 S 17 24 9 13 1023.4 1023.1 0.2
28/08:30am 17.7 16.1 12.8 73 2.8 S 13 22 7 12 1023.4 1023.1 0.2
28/08:00am 17.0 16.0 13.3 79 2.1 S 11 17 6 9 1023.1 1022.8 0.2
28/07:30am 16.4 16.1 13.3 82 1.8 SSE 7 11 4 6 1022.8 1022.5 0.2
28/07:00am 15.5 15.0 12.8 84 1.5 SSE 7 11 4 6 1022.4 1022.1 0.2
28/06:30am 15.4 14.4 12.3 82 1.7 S 9 13 5 7 1021.9 1021.6 0.2
28/06:00am 15.7 14.3 12.1 79 2.0 S 11 17 6 9 1021.3 1021.1 0.2
28/05:30am 15.9 13.8 12.3 79 2.0 S 15 24 8 13 1021.0 1020.8 0.2
28/05:00am 16.3 14.2 12.5 78 2.1 S 15 22 8 12 1020.9 1020.6 0.2
28/04:30am 16.6 13.9 12.9 79 2.1 SSE 19 28 10 15 1020.8 1020.5 0.2
28/04:00am 16.6 15.8 15.1 91 0.9 SSE 13 20 7 11 1020.7 1020.4 0.2
28/03:30am 16.6 17.1 15.6 94 0.6 S 7 11 4 6 1020.4 1020.1 0.2
28/03:00am 16.5 17.1 15.4 93 0.6 S 6 7 3 4 1020.5 1020.2 0.2
28/02:30am 16.7 17.2 15.6 93 0.6 SSE 7 9 4 5 1020.6 1020.3 0.2
28/02:00am 16.8 17.9 15.7 93 0.6 SSE 4 6 2 3 1020.8 1020.5 0.2
28/01:30am 16.9 17.6 15.6 92 0.8 S 6 9 3 5 1021.0 1020.8 0.2
28/01:00am 17.1 18.3 15.8 92 0.8 SSE 4 6 2 3 1021.2 1021.0 0.2
28/12:30am 17.1 17.0 16.0 93 0.7 SE 11 13 6 7 1020.8 1020.5 0.2
28/12:00am 17.1 17.8 16.0 93 0.7 ESE 7 9 4 5 1021.2 1021.0 0.2
 
Date/Time
EST
Temp
°C
App
Temp
°C
Dew
Point
Rel
Hum
%
Delta-T
°C
Wind Press
QNH
hPa
Press
MSL
hPa
Rain
since 9 am
mm
Dir
 
Spd
km/h
Gust
km/h
Spd
kts
Gust
kts
27/11:30pm 17.0 18.1 15.5 91 0.9 SSE 4 6 2 3 1021.5 1021.2 0.2
27/11:00pm 17.7 19.6 15.7 88 1.2 CALM 0 6 0 3 1021.8 1021.5 0.2
27/10:30pm 18.0 18.1 15.4 85 1.5 E 9 13 5 7 1021.2 1021.0 0.0
27/10:00pm 18.1 19.1 15.4 84 1.6 S 4 6 2 3 1021.7 1021.4 0.0
27/09:30pm 18.1 19.0 15.2 83 1.7 S 4 6 2 3 1021.9 1021.6 0.0
27/09:00pm 18.2 18.9 15.5 84 1.6 SE 6 7 3 4 1021.7 1021.4 0.0
27/08:30pm 18.4 20.2 15.5 83 1.7 CALM 0 0 0 0 1021.5 1021.2 0.0
27/08:00pm 18.6 19.9 15.1 80 2.1 SSW 2 4 1 2 1021.5 1021.2 0.0
27/07:30pm 18.9 20.1 15.0 78 2.3 S 2 4 1 2 1021.0 1020.8 0.0
27/07:00pm 19.1 20.0 15.0 77 2.4 SSW 4 6 2 3 1020.7 1020.4 0.0
27/06:30pm 19.6 19.6 14.2 71 3.2 SW 7 11 4 6 1020.3 1020.0 0.0
27/06:00pm 20.5 20.5 13.7 65 3.9 SW 6 6 3 3 1020.0 1019.7 0.0
27/05:30pm 20.8 21.3 14.0 65 4.0 SW 4 6 2 3 1019.7 1019.4 0.0
27/05:00pm 21.5 22.3 13.7 61 4.5 W 2 6 1 3 1019.4 1019.1 0.0
27/04:30pm 22.1 22.9 12.4 54 5.6 CALM 0 2 0 1 1019.2 1018.9 0.0
27/04:00pm 22.2 21.7 12.5 54 5.6 ESE 7 9 4 5 1018.7 1018.4 0.0
27/03:30pm 22.3 22.3 11.1 49 6.3 WSW 2 6 1 3 1019.4 1019.1 0.0
27/03:00pm 22.1 21.6 12.1 53 5.7 ESE 6 7 3 4 1019.4 1019.1 0.0
27/02:30pm 21.9 21.4 12.7 56 5.3 E 7 13 4 7 1019.6 1019.3 0.0
27/02:00pm 21.6 21.5 13.2 59 4.9 ESE 6 7 3 4 1020.1 1019.8 0.0
27/01:30pm 21.3 21.9 13.0 59 4.8 S 2 6 1 3 1020.6 1020.3 0.0
27/01:00pm 21.6 21.5 13.2 59 4.8 SW 6 9 3 5 1020.8 1020.5 0.0
27/12:30pm 21.7 22.2 13.9 61 4.6 SE 4 13 2 7 1021.6 1021.3 0.0
27/12:00pm 20.9 20.6 14.3 66 3.9 SSE 9 15 5 8 1022.3 1022.0 0.0
27/11:30am 20.4 20.1 14.3 68 3.6 SSW 9 15 5 8 1022.8 1022.5 0.0
27/11:00am 19.9 19.0 13.8 68 3.5 SSW 11 15 6 8 1023.5 1023.2 0.0
27/10:30am 18.6 18.9 14.9 79 2.2 S 7 11 4 6 1023.7 1023.4 0.0
27/10:00am 17.9 17.6 14.4 80 2.0 SSE 9 15 5 8 1023.7 1023.4 0.0
27/09:30am 17.8 17.2 14.5 81 1.9 SSE 11 19 6 10 1023.7 1023.4 0.0
27/09:00am 17.7 17.2 15.0 84 1.6 S 11 15 6 8 1023.1 1022.8 14.2
27/08:30am 17.7 16.0 14.6 82 1.8 SE 17 20 9 11 1023.0 1022.7 14.2
27/08:00am 17.2 16.8 15.2 88 1.2 SSE 11 15 6 8 1023.0 1022.7 14.2
27/07:30am 16.7 17.3 15.4 92 0.8 SSE 6 7 3 4 1022.7 1022.4 14.2
27/07:00am 16.2 16.2 15.1 93 0.6 SE 9 11 5 6 1022.2 1021.9 14.2
27/06:30am 15.9 16.4 15.1 95 0.5 SSW 6 9 3 5 1022.1 1021.8 14.2
27/06:00am 15.7 16.2 15.1 96 0.3 S 6 9 3 5 1021.5 1021.2 14.2
27/05:30am 15.7 16.6 15.2 97 0.3 S 4 6 2 3 1021.3 1021.1 14.2
27/05:00am 15.7 16.6 15.2 97 0.3 SSW 4 6 2 3 1021.0 1020.8 14.2
27/04:30am 15.8 17.2 15.3 97 0.3 SW 2 4 1 2 1020.7 1020.4 14.2
27/04:00am 15.7 17.4 15.2 97 0.3 CALM 0 0 0 0 1020.4 1020.1 14.2
27/03:30am 15.9 16.5 15.4 97 0.3 SW 6 7 3 4 1020.4 1020.1 14.2
27/03:00am 15.9 16.9 15.4 97 0.3 SW 4 6 2 3 1020.2 1019.9 14.2
27/02:30am 16.1 17.9 15.5 96 0.4 CALM 0 2 0 1 1020.1 1019.8 14.2
27/02:00am 16.4 18.3 15.8 96 0.4 CALM 0 0 0 0 1020.7 1020.4 14.2
27/01:30am 16.4 17.6 15.9 97 0.3 ESE 4 6 2 3 1021.0 1020.8 14.2
27/01:00am 16.3 15.8 15.8 97 0.3 S 13 17 7 9 1020.5 1020.2 14.2
27/12:30am 16.3 16.5 15.7 96 0.4 S 9 13 5 7 1021.9 1021.6 14.0
27/12:00am 16.6 15.8 16.0 96 0.4 ESE 15 22 8 12 1022.3 1022.0 13.4
 
Date/Time
EST
Temp
°C
App
Temp
°C
Dew
Point
Rel
Hum
%
Delta-T
°C
Wind Press
QNH
hPa
Press
MSL
hPa
Rain
since 9 am
mm
Dir
 
Spd
km/h
Gust
km/h
Spd
kts
Gust
kts
26/11:30pm 16.3 15.3 15.7 96 0.4 SE 15 17 8 9 1022.5 1022.2 12.8
26/11:00pm 16.2 15.1 15.4 95 0.5 SSE 15 22 8 12 1023.0 1022.7 12.2
26/10:30pm 16.1 15.7 15.3 95 0.5 SW 11 20 6 11 1023.4 1023.1 10.4
26/10:00pm 17.1 16.3 16.1 94 0.6 WSW 15 28 8 15 1023.5 1023.2 5.6
26/09:30pm 17.3 15.4 15.8 91 0.9 SSW 20 39 11 21 1021.9 1021.6 3.2
26/09:00pm 18.4 15.7 15.6 84 1.7 SSW 24 35 13 19 1021.3 1021.1 0.8
26/08:30pm 21.4 20.3 14.3 64 4.2 S 13 17 7 9 1020.7 1020.4 0.0
26/08:00pm 21.6 19.4 14.3 63 4.3 SSE 19 26 10 14 1019.9 1019.6 0.0
26/07:30pm 22.4 21.0 13.5 57 5.2 SSE 13 19 7 10 1019.4 1019.1 0.0
26/07:00pm 22.8 22.0 14.1 58 5.1 S 11 20 6 11 1019.1 1018.8 0.0
26/06:30pm 24.0 21.4 13.8 53 6.0 SSE 20 28 11 15 1018.4 1018.1 0.0
26/06:00pm 27.1 28.2 13.4 42 8.1 CALM 0 6 0 3 1017.7 1017.4 0.0
26/05:30pm 28.1 28.2 12.8 38 9.1 N 4 6 2 3 1017.2 1016.9 0.0
26/05:00pm 30.2 30.5 13.5 36 10.1 NW 4 7 2 4 1016.9 1016.5 0.0
26/04:30pm 30.0 29.6 12.4 34 10.4 WSW 6 7 3 4 1016.8 1016.4 0.0
26/04:00pm 29.6 30.0 12.5 35 10.1 WSW 2 4 1 2 1016.8 1016.4 0.0
26/03:30pm 29.7 29.2 12.2 34 10.3 ENE 6 11 3 6 1017.0 1016.6 0.0
26/03:00pm 29.7 29.4 12.6 35 10.1 NNW 6 9 3 5 1017.2 1016.9 0.0
26/02:30pm 29.6 29.4 12.9 35 10.0 N 6 13 3 7 1017.5 1017.2 0.0
26/02:00pm 27.9 27.3 12.3 38 9.1 WNW 7 13 4 7 1017.8 1017.5 0.0
26/01:30pm 27.8 27.5 12.6 39 9.0 W 6 11 3 6 1018.2 1017.9 0.0
26/01:00pm 26.7 25.8 12.7 42 8.2 SSE 9 15 5 8 1018.9 1018.6 0.0
26/12:30pm 26.3 26.0 12.7 43 8.0 S 6 11 3 6 1019.6 1019.3 0.0
26/12:00pm 26.3 26.2 13.4 45 7.6 SSE 6 13 3 7 1020.5 1020.2 0.0
26/11:30am 24.8 24.5 12.7 47 7.0 SE 6 17 3 9 1021.5 1021.2 0.0
26/11:00am 23.8 22.8 12.4 48 6.6 SSE 9 17 5 9 1022.1 1021.8 0.0
26/10:30am 23.0 21.6 12.3 51 6.1 SE 11 19 6 10 1022.6 1022.3 0.0
26/10:00am 22.0 20.7 11.4 51 5.9 SSE 9 19 5 10 1022.9 1022.6 0.0
26/09:30am 21.2 19.9 11.2 53 5.6 SSE 9 17 5 9 1023.0 1022.7 0.0
26/09:00am 19.8 17.4 10.2 54 5.2 SSE 13 17 7 9 1023.2 1022.9 0.0
26/08:30am 18.1 15.5 9.5 57 4.6 S 13 19 7 10 1023.2 1022.9 0.0
26/08:00am 17.3 15.2 9.7 61 4.0 S 11 19 6 10 1022.6 1022.3 0.0
26/07:30am 15.9 14.0 10.4 70 2.9 SSE 11 13 6 7 1022.1 1021.8 0.0
26/07:00am 14.4 13.2 10.2 76 2.2 SSE 7 9 4 5 1022.0 1021.7 0.0
26/06:30am 13.6 13.7 10.0 79 1.9 CALM 0 0 0 0 1021.6 1021.3 0.0
26/06:00am 14.5 14.6 10.3 76 2.2 CALM 0 0 0 0 1021.5 1021.2 0.0
26/05:30am 14.7 14.4 10.1 74 2.4 SE 2 6 1 3 1020.8 1020.5 0.0
26/05:00am 15.7 15.0 10.2 70 2.9 ESE 4 6 2 3 1020.4 1020.1 0.0
26/04:30am 16.5 15.3 11.6 73 2.7 SSE 9 13 5 7 1019.9 1019.6 0.0
26/04:00am 16.1 15.2 13.8 86 1.3 SSE 11 13 6 7 1019.8 1019.5 0.0
26/03:30am 16.2 16.5 14.4 89 1.0 SSE 6 7 3 4 1019.9 1019.6 0.0
26/03:00am 16.2 16.4 14.2 88 1.1 SSE 6 9 3 5 1019.8 1019.5 0.0
26/02:30am 16.2 16.3 14.0 87 1.3 S 6 9 3 5 1020.1 1019.8 0.0
26/02:00am 16.6 16.8 14.1 85 1.4 S 6 7 3 4 1020.0 1019.7 0.0
26/01:30am 17.2 18.2 14.3 83 1.7 N 2 4 1 2 1020.0 1019.7 0.0
26/01:00am 17.3 17.4 13.8 80 2.0 NW 6 7 3 4 1020.4 1020.1 0.0
26/12:30am 17.8 18.1 13.3 75 2.6 NNW 4 6 2 3 1020.7 1020.4 0.0
26/12:00am 19.4 19.0 15.3 77 2.4 ENE 11 13 6 7 1020.5 1020.2 0.0
 
Date/Time
EST
Temp
°C
App
Temp
°C
Dew
Point
Rel
Hum
%
Delta-T
°C
Wind Press
QNH
hPa
Press
MSL
hPa
Rain
since 9 am
mm
Dir
 
Spd
km/h
Gust
km/h
Spd
kts
Gust
kts
25/11:30pm 18.3 18.7 15.4 83 1.7 E 7 9 4 5 1020.5 1020.2 0.0
25/11:00pm 17.3 17.4 14.4 83 1.7 SSE 7 9 4 5 1020.5 1020.2 0.0
25/10:30pm 17.9 18.4 15.0 83 1.7 SSE 6 7 3 4 1020.2 1019.9 0.0
25/10:00pm 18.3 18.9 15.2 82 1.8 S 6 9 3 5 1019.8 1019.5 0.0
25/09:30pm 18.6 18.8 14.3 76 2.5 S 6 9 3 5 1019.7 1019.4 0.0
25/09:00pm 18.8 18.8 14.3 75 2.6 SSE 7 7 4 4 1019.6 1019.3 0.0
25/08:30pm 20.0 19.8 14.6 71 3.2 SSE 9 9 5 5 1019.4 1019.1 0.0
25/08:00pm 20.4 21.1 14.5 69 3.5 SSW 4 7 2 4 1019.4 1019.1 0.0
25/07:30pm 20.9 21.2 14.5 67 3.8 SSW 6 9 3 5 1018.6 1018.3 0.0
25/07:00pm 21.3 20.9 14.2 64 4.2 SSE 9 11 5 6 1018.2 1017.9 0.0
25/06:30pm 22.1 20.6 14.2 61 4.7 SSE 15 20 8 11 1017.8 1017.5 0.0
25/06:00pm 23.5 21.2 13.1 52 6.1 SE 17 24 9 13 1017.6 1017.3 0.0
25/05:30pm 27.4 27.9 15.1 47 7.5 WNW 6 13 3 7 1017.2 1016.9 0.0
25/05:00pm 28.2 27.8 15.1 44 8.0 NNW 11 15 6 8 1016.7 1016.3 0.0
25/04:30pm 29.2 28.6 15.7 44 8.4 NNW 13 22 7 12 1016.5 1016.2 0.0
25/04:00pm 29.2 28.5 16.4 46 8.0 N 15 22 8 12 1016.7 1016.3 0.0
25/03:30pm 28.3 26.5 15.6 46 7.9 NNW 19 26 10 14 1017.1 1016.7 0.0

Other Formats:

Comma delimited format used in spreadsheet applications
http://www.bom.gov.au/fwo/IDQ60801/IDQ60801.94396.axf

JavaScript Object Notation format (JSON) in row-major order
http://www.bom.gov.au/fwo/IDQ60801/IDQ60801.94396.json